createdAt,value
2022-12-14T00:00:58.834Z,43.6
2022-12-14T00:02:00.917Z,43.7
2022-12-14T00:03:03.051Z,44
2022-12-14T00:04:04.925Z,44.2
2022-12-14T00:05:06.902Z,44.3
2022-12-14T00:06:08.696Z,44.4
2022-12-14T00:07:09.700Z,44.4
2022-12-14T00:08:10.697Z,44.7
2022-12-14T00:09:11.618Z,44.7
2022-12-14T00:10:12.757Z,44.8
2022-12-14T00:11:14.712Z,44.9
2022-12-14T00:12:16.916Z,44.8
2022-12-14T00:13:18.860Z,44.6
2022-12-14T00:14:20.833Z,44.9
2022-12-14T00:15:22.936Z,44.9
2022-12-14T00:16:24.936Z,45.1
2022-12-14T00:17:26.737Z,45.4
2022-12-14T00:18:29.403Z,45.3
2022-12-14T00:19:30.906Z,45.3
2022-12-14T00:20:32.763Z,45.1
2022-12-14T00:21:34.857Z,44.9
2022-12-14T00:22:36.937Z,44.7
2022-12-14T00:23:39.424Z,44.7
2022-12-14T00:24:41.037Z,44.7
2022-12-14T00:25:42.736Z,44.5
2022-12-14T00:26:44.718Z,44.4
2022-12-14T00:27:46.880Z,44.2
2022-12-14T00:28:48.848Z,44.3
2022-12-14T00:29:50.896Z,44.2
2022-12-14T00:30:58.078Z,44
2022-12-14T00:31:54.898Z,43.7
2022-12-14T00:32:56.896Z,43.6
2022-12-14T00:33:58.857Z,44.1
2022-12-14T00:35:00.981Z,44.4
2022-12-14T00:36:02.702Z,44.5
2022-12-14T00:37:03.676Z,44.5
2022-12-14T00:38:04.748Z,44.6
2022-12-14T00:39:05.656Z,44.6
2022-12-14T00:40:06.864Z,44.6
2022-12-14T00:41:08.917Z,44.6
2022-12-14T00:42:10.905Z,44.8
2022-12-14T00:43:12.744Z,44.8
2022-12-14T00:44:14.722Z,44.8
2022-12-14T00:45:16.942Z,44.7
2022-12-14T00:46:18.924Z,44.5
2022-12-14T00:47:20.859Z,44.9
2022-12-14T00:48:22.904Z,45.3
2022-12-14T00:49:24.924Z,45.4
2022-12-14T00:50:27.221Z,45.6
2022-12-14T00:51:28.737Z,45.6
2022-12-14T00:52:30.757Z,45.4
2022-12-14T00:53:32.979Z,45.4
2022-12-14T00:54:34.936Z,45.2
2022-12-14T00:55:36.996Z,44.8
2022-12-14T00:56:38.925Z,44.6
2022-12-14T00:57:40.966Z,44.6
2022-12-14T00:58:42.696Z,44.6
2022-12-14T00:59:43.777Z,44.6
2022-12-14T01:00:45.799Z,44.6
2022-12-14T01:01:48.885Z,44.5
2022-12-14T01:02:49.801Z,44.4
2022-12-14T01:03:52.016Z,44.5
2022-12-14T01:04:53.880Z,44.5
2022-12-14T01:05:55.782Z,43.9
2022-12-14T01:06:57.697Z,44.5
2022-12-14T01:07:58.756Z,43.8
2022-12-14T01:09:00.856Z,44.3
2022-12-14T01:10:03.077Z,44.4
2022-12-14T01:11:04.936Z,44.7
2022-12-14T01:12:06.916Z,44.9
2022-12-14T01:13:08.716Z,45.1
2022-12-14T01:14:09.777Z,45.1
2022-12-14T01:15:11.933Z,45.2
2022-12-14T01:16:13.934Z,45.3
2022-12-14T01:17:15.987Z,45.7
2022-12-14T01:18:18.036Z,45.8
2022-12-14T01:19:19.860Z,45.7
2022-12-14T01:20:21.859Z,45.7
2022-12-14T01:21:23.706Z,45.3
2022-12-14T01:22:24.776Z,45.3
2022-12-14T01:23:27.197Z,45.3
2022-12-14T01:24:28.765Z,45.4
2022-12-14T01:25:30.918Z,45
2022-12-14T01:26:32.917Z,44.6
2022-12-14T01:27:34.877Z,44.6
2022-12-14T01:28:36.717Z,44.6
2022-12-14T01:29:37.804Z,44.6
2022-12-14T01:30:39.876Z,44.5
2022-12-14T01:31:42.047Z,44.7
2022-12-14T01:32:43.737Z,44.8
2022-12-14T01:33:44.999Z,45.1
2022-12-14T01:34:46.958Z,45.3
2022-12-14T01:35:48.979Z,45.4
2022-12-14T01:36:51.043Z,45.3
2022-12-14T01:37:52.741Z,45.1
2022-12-14T01:38:53.677Z,44.8
2022-12-14T01:39:54.748Z,44.6
2022-12-14T01:40:56.748Z,44.6
2022-12-14T01:41:58.978Z,44.5
2022-12-14T01:43:00.737Z,44.8
2022-12-14T01:44:02.378Z,44.8
2022-12-14T01:45:03.717Z,45
2022-12-14T01:46:04.797Z,45.1
2022-12-14T01:47:12.317Z,44.7
2022-12-14T01:48:08.984Z,45.3
2022-12-14T01:49:10.937Z,45.5
2022-12-14T01:50:12.876Z,45.4
2022-12-14T01:51:14.717Z,45.3
2022-12-14T01:52:15.963Z,45.5
2022-12-14T01:53:17.939Z,45.7
2022-12-14T01:54:19.997Z,45.6
2022-12-14T01:55:22.081Z,45.4
2022-12-14T01:56:23.896Z,45.7
2022-12-14T01:57:25.721Z,45.9
2022-12-14T01:58:26.797Z,45.6
2022-12-14T01:59:28.756Z,45.8
2022-12-14T02:00:30.854Z,45.8
2022-12-14T02:01:33.057Z,45.7
2022-12-14T02:02:35.106Z,45.5
2022-12-14T02:06:49.753Z,45.3
2022-12-14T02:07:52.071Z,44.6
2022-12-14T02:08:53.930Z,45
2022-12-14T02:09:55.798Z,44.9
2022-12-14T02:10:57.771Z,44.9
2022-12-14T02:11:59.711Z,45.1
2022-12-14T02:13:00.790Z,45
2022-12-14T02:14:02.891Z,45.1
2022-12-14T02:15:04.997Z,45.2
2022-12-14T02:16:06.973Z,45.3
2022-12-14T02:17:08.950Z,45.3
2022-12-14T02:18:10.938Z,45.2
2022-12-14T02:19:13.078Z,45
2022-12-14T02:20:14.751Z,45.2
2022-12-14T02:21:15.970Z,45.4
2022-12-14T02:22:17.952Z,45.3
2022-12-14T02:23:19.963Z,45.2
2022-12-14T02:24:21.951Z,44.9
2022-12-14T02:25:23.971Z,44.9
2022-12-14T02:26:25.866Z,44.9
2022-12-14T02:27:27.938Z,45.1
2022-12-14T02:28:29.979Z,44.9
2022-12-14T02:29:31.810Z,44.9
2022-12-14T02:30:33.871Z,44.8
2022-12-14T02:31:36.012Z,44.9
2022-12-14T02:32:37.850Z,44.9
2022-12-14T02:33:39.709Z,44.9
2022-12-14T02:34:40.830Z,44.9
2022-12-14T02:35:42.772Z,44.8
2022-12-14T02:36:44.788Z,44.8
2022-12-14T02:37:47.200Z,44.2
2022-12-14T02:38:48.937Z,44.6
2022-12-14T02:39:51.052Z,44.5
2022-12-14T02:40:53.347Z,44.7
2022-12-14T02:41:55.070Z,45
2022-12-14T02:42:56.859Z,45.1
2022-12-14T02:43:58.912Z,45.2
2022-12-14T02:45:00.730Z,44.9
2022-12-14T02:46:02.050Z,44.5
2022-12-14T02:47:04.019Z,44.7
2022-12-14T02:48:05.995Z,44.8
2022-12-14T02:49:07.913Z,44.8
2022-12-14T02:50:09.933Z,44.6
2022-12-14T02:51:11.803Z,44.4
2022-12-14T02:52:13.812Z,44.2
2022-12-14T02:53:15.825Z,44.1
2022-12-14T02:54:17.897Z,44
2022-12-14T02:55:19.951Z,44.5
2022-12-14T02:56:21.971Z,45.1
2022-12-14T02:57:23.831Z,45.4
2022-12-14T02:58:25.773Z,45.5
2022-12-14T02:59:26.740Z,45.3
2022-12-14T03:00:27.763Z,45.5
2022-12-14T03:01:28.877Z,45.7
2022-12-14T03:02:29.924Z,45.9
2022-12-14T03:03:31.912Z,45.8
2022-12-14T03:04:33.851Z,45.8
2022-12-14T03:05:35.972Z,46
2022-12-14T03:06:37.999Z,46.2
2022-12-14T03:07:39.739Z,46.1
2022-12-14T03:08:40.833Z,46
2022-12-14T03:09:42.759Z,45.8
2022-12-14T03:10:43.771Z,45.8
2022-12-14T03:11:44.790Z,45.9
2022-12-14T03:12:46.816Z,45.5
2022-12-14T03:13:49.157Z,45.7
2022-12-14T03:14:50.931Z,46.2
2022-12-14T03:15:53.018Z,46.6
2022-12-14T03:16:54.832Z,46.6
2022-12-14T03:17:56.791Z,47.2
2022-12-14T03:18:58.815Z,47.3
2022-12-14T03:20:00.838Z,47.5
2022-12-14T03:21:02.955Z,47.8
2022-12-14T03:22:04.894Z,47.7
2022-12-14T03:23:06.911Z,47.9
2022-12-14T03:24:09.011Z,47.8
2022-12-14T03:25:10.797Z,47.8
2022-12-14T03:26:11.791Z,47.9
2022-12-14T03:27:13.791Z,47.8
2022-12-14T03:28:15.798Z,48
2022-12-14T03:29:17.880Z,48.3
2022-12-14T03:30:37.147Z,48.4
2022-12-14T03:31:21.978Z,47.8
2022-12-14T03:32:23.885Z,48
2022-12-14T03:33:26.079Z,47.8
2022-12-14T03:34:26.771Z,48
2022-12-14T03:35:27.820Z,48.2
2022-12-14T03:36:29.771Z,48.3
2022-12-14T03:37:30.770Z,48
2022-12-14T03:38:32.030Z,47.7
2022-12-14T03:39:33.913Z,47.3
2022-12-14T03:40:35.959Z,47.1
2022-12-14T03:41:37.844Z,46.6
2022-12-14T03:42:39.990Z,46.5
2022-12-14T03:43:41.834Z,46.2
2022-12-14T03:44:48.834Z,46.4
2022-12-14T03:45:45.899Z,46.6
2022-12-14T03:46:47.932Z,47
2022-12-14T03:47:49.751Z,47.1
2022-12-14T03:48:50.770Z,47.3
2022-12-14T03:49:51.851Z,47.4
2022-12-14T03:50:53.971Z,47.3
2022-12-14T03:51:55.930Z,47
2022-12-14T03:52:57.986Z,47.2
2022-12-14T03:53:59.971Z,47.5
2022-12-14T03:55:02.013Z,47.7
2022-12-14T03:56:04.021Z,48.1
2022-12-14T03:57:05.993Z,48.2
2022-12-14T03:58:07.912Z,48.1
2022-12-14T03:59:09.953Z,47.9
2022-12-14T04:00:11.963Z,47.9
2022-12-14T04:01:14.258Z,47.6
2022-12-14T04:02:15.927Z,47.4
2022-12-14T04:03:18.098Z,47.6
2022-12-14T04:04:19.950Z,47.5
2022-12-14T04:05:21.931Z,47.6
2022-12-14T04:06:23.899Z,47.5
2022-12-14T04:07:26.002Z,47.9
2022-12-14T04:08:27.830Z,48.1
2022-12-14T04:09:29.731Z,48.3
2022-12-14T04:10:30.785Z,48.6
2022-12-14T04:11:32.960Z,48.8
2022-12-14T04:12:34.884Z,49.1
2022-12-14T04:13:36.991Z,49.8
2022-12-14T04:14:39.010Z,49.7
2022-12-14T04:15:40.993Z,49.4
2022-12-14T04:16:42.961Z,49.2
2022-12-14T04:17:44.972Z,48.8
2022-12-14T04:18:46.911Z,48.7
2022-12-14T04:19:49.317Z,48.6
2022-12-14T04:20:50.975Z,48.5
2022-12-14T04:21:52.910Z,48.5
2022-12-14T04:22:54.910Z,48.4
2022-12-14T04:23:56.812Z,48
2022-12-14T04:24:57.911Z,48.2
2022-12-14T04:25:59.786Z,48.3
2022-12-14T04:27:00.892Z,47.4
2022-12-14T04:28:02.971Z,47.7
2022-12-14T04:29:04.893Z,47.9
2022-12-14T04:30:07.051Z,47.7
2022-12-14T04:31:08.931Z,48.1
2022-12-14T04:32:10.972Z,48.5
2022-12-14T04:33:12.852Z,49.1
2022-12-14T04:34:14.791Z,49.3
2022-12-14T04:35:15.839Z,49.2
2022-12-14T04:36:18.051Z,49.2
2022-12-14T04:37:19.791Z,49
2022-12-14T04:38:20.811Z,49
2022-12-14T04:39:21.778Z,49
2022-12-14T04:40:22.832Z,48.8
2022-12-14T04:41:25.499Z,48.7
2022-12-14T04:42:26.862Z,48.5
2022-12-14T04:43:29.086Z,48.4
2022-12-14T04:44:30.858Z,48.2
2022-12-14T04:45:33.160Z,48.2
2022-12-14T04:46:38.925Z,48.1
2022-12-14T04:47:37.056Z,48.2
2022-12-14T04:48:38.886Z,48.2
2022-12-14T04:49:41.019Z,48.4
2022-12-14T04:50:42.932Z,49
2022-12-14T04:51:44.870Z,49.3
2022-12-14T04:52:47.012Z,49.4
2022-12-14T04:53:48.950Z,49.8
2022-12-14T04:54:50.792Z,50.2
2022-12-14T04:55:51.830Z,50.6
2022-12-14T04:56:53.892Z,50.9
2022-12-14T04:57:55.817Z,51.1
2022-12-14T04:58:56.835Z,51.3
2022-12-14T04:59:58.810Z,51.4
2022-12-14T05:00:59.814Z,51.5
2022-12-14T05:02:00.912Z,51.7
2022-12-14T05:03:02.111Z,51.7
2022-12-14T05:04:07.083Z,51.8
2022-12-14T05:05:05.953Z,51.7
2022-12-14T05:06:07.991Z,51.8
2022-12-14T05:07:09.879Z,51.8
2022-12-14T05:08:11.941Z,51.5
2022-12-14T05:09:14.058Z,51.2
2022-12-14T05:10:15.835Z,50.8
2022-12-14T05:11:49.991Z,50.7
2022-12-14T05:12:19.971Z,50.8
2022-12-14T05:13:21.998Z,50.9
2022-12-14T05:14:23.904Z,50.9
2022-12-14T05:15:25.882Z,50.8
2022-12-14T05:16:27.840Z,50.8
2022-12-14T05:17:28.774Z,50.9
2022-12-14T05:18:29.832Z,50.5
2022-12-14T05:19:32.213Z,50.9
2022-12-14T05:20:34.091Z,51.1
2022-12-14T05:21:35.830Z,51.1
2022-12-14T05:22:36.912Z,51.1
2022-12-14T05:23:38.897Z,51.1
2022-12-14T05:24:41.011Z,51.3
2022-12-14T05:25:42.879Z,51.3
2022-12-14T05:26:44.794Z,51.3
2022-12-14T05:27:45.810Z,51.5
2022-12-14T05:28:50.329Z,51.6
2022-12-14T05:29:48.931Z,52
2022-12-14T05:30:50.968Z,52.1
2022-12-14T05:31:52.990Z,52.3
2022-12-14T05:32:55.010Z,52.3
2022-12-14T05:33:56.953Z,52.4
2022-12-14T05:34:58.811Z,52.6
2022-12-14T05:36:00.171Z,52.5
2022-12-14T05:37:01.971Z,52.5
2022-12-14T05:38:04.031Z,52.5
2022-12-14T05:39:06.011Z,52.2
2022-12-14T05:40:08.031Z,51.8
2022-12-14T05:41:09.851Z,51.6
2022-12-14T05:42:12.111Z,51.6
2022-12-14T05:43:14.011Z,51.6
2022-12-14T05:44:15.836Z,51.7
2022-12-14T05:45:17.072Z,51.3
2022-12-14T05:46:19.140Z,51.6
2022-12-14T05:47:20.971Z,51.5
2022-12-14T05:48:22.991Z,51.5
2022-12-14T05:49:25.039Z,51.5
2022-12-14T05:50:27.032Z,51.4
2022-12-14T05:51:28.850Z,50.6
2022-12-14T05:52:30.871Z,51
2022-12-14T05:53:33.168Z,51.2
2022-12-14T05:54:34.973Z,51.3
2022-12-14T05:55:37.031Z,51.2
2022-12-14T05:56:38.972Z,51
2022-12-14T05:57:40.913Z,50.2
2022-12-14T05:58:43.431Z,50.7
2022-12-14T05:59:44.918Z,50.5
2022-12-14T06:00:46.968Z,50.7
2022-12-14T06:01:49.391Z,50.9
2022-12-14T06:02:50.931Z,51.3
2022-12-14T06:03:53.009Z,51
2022-12-14T06:04:54.919Z,51
2022-12-14T06:05:57.032Z,51.1
2022-12-14T06:06:58.931Z,51
2022-12-14T06:08:00.912Z,50.8
2022-12-14T06:09:03.032Z,50.9
2022-12-14T06:10:05.051Z,51
2022-12-14T06:11:07.032Z,50.9
2022-12-14T06:12:09.058Z,50.9
2022-12-14T06:13:10.931Z,51
2022-12-14T06:14:13.064Z,51.1
2022-12-14T06:15:14.856Z,51
2022-12-14T06:16:15.959Z,50.9
2022-12-14T06:17:16.887Z,51.1
2022-12-14T06:18:18.785Z,51.3
2022-12-14T06:19:19.820Z,51.2
2022-12-14T06:20:20.805Z,51.2
2022-12-14T06:21:21.907Z,51
2022-12-14T06:22:23.994Z,50.6
2022-12-14T06:23:26.275Z,50.8
2022-12-14T06:24:27.941Z,50.9
2022-12-14T06:25:29.834Z,50.7
2022-12-14T06:26:30.802Z,50.5
2022-12-14T06:27:31.987Z,50.3
2022-12-14T06:28:34.605Z,50.2
2022-12-14T06:29:35.895Z,49.9
2022-12-14T06:30:38.000Z,50
2022-12-14T06:31:39.787Z,49.9
2022-12-14T06:32:40.799Z,49.9
2022-12-14T06:33:42.174Z,50.2
2022-12-14T06:34:43.883Z,50.4
2022-12-14T06:35:45.799Z,50.5
2022-12-14T06:36:48.075Z,50.2
2022-12-14T06:39:42.966Z,50.4
2022-12-14T06:40:44.944Z,50.6
2022-12-14T06:41:46.852Z,50.8
2022-12-14T06:42:48.845Z,50.6
2022-12-14T06:43:49.961Z,50.3
2022-12-14T06:44:51.976Z,50.2
2022-12-14T06:45:54.128Z,49.6
2022-12-14T06:46:56.140Z,50.4
2022-12-14T06:47:58.026Z,50.4
2022-12-14T06:49:00.012Z,50.2
2022-12-14T06:50:02.116Z,50
2022-12-14T06:51:03.921Z,49.7
2022-12-14T06:52:05.795Z,49.3
2022-12-14T06:53:06.844Z,49
2022-12-14T06:54:08.513Z,48.9
2022-12-14T06:55:10.429Z,48.5
2022-12-14T06:56:11.965Z,48.3
2022-12-14T06:57:13.863Z,48.3
2022-12-14T06:58:14.856Z,48.3
2022-12-14T06:59:15.830Z,48
2022-12-14T07:00:16.947Z,47.8
2022-12-14T07:01:19.041Z,47.1
2022-12-14T07:02:21.313Z,47.4
2022-12-14T07:03:23.158Z,47.6
2022-12-14T07:04:25.134Z,47.8
2022-12-14T07:05:27.055Z,47.8
2022-12-14T07:06:28.863Z,47.9
2022-12-14T07:07:31.120Z,47.7
2022-12-14T07:08:33.033Z,47.6
2022-12-14T07:09:34.855Z,47.6
2022-12-14T07:10:35.793Z,47.3
2022-12-14T07:11:37.038Z,47.6
2022-12-14T07:12:39.027Z,48.3
2022-12-14T07:13:41.094Z,48.6
2022-12-14T07:14:42.966Z,48.6
2022-12-14T07:15:44.903Z,48.6
2022-12-14T07:16:48.461Z,49.2
2022-12-14T07:17:48.844Z,49.2
2022-12-14T07:18:49.883Z,48.4
2022-12-14T07:19:56.044Z,48.6
2022-12-14T07:20:57.824Z,49.1
2022-12-14T07:21:58.905Z,49.5
2022-12-14T07:23:00.972Z,50
2022-12-14T07:24:03.068Z,50.1
2022-12-14T07:25:05.048Z,50.3
2022-12-14T07:26:07.083Z,50.3
2022-12-14T07:27:08.862Z,50.7
2022-12-14T07:28:09.831Z,50.9
2022-12-14T07:29:11.006Z,50.8
2022-12-14T07:30:13.173Z,50.8
2022-12-14T07:31:15.149Z,50.8
2022-12-14T07:32:16.974Z,50.9
2022-12-14T07:33:18.984Z,51
2022-12-14T07:34:21.243Z,50.9
2022-12-14T07:35:23.043Z,51.1
2022-12-14T07:36:30.169Z,51.5
2022-12-14T07:37:32.000Z,51.6
2022-12-14T07:38:34.063Z,51.7
2022-12-14T07:39:35.887Z,51.6
2022-12-14T07:40:36.870Z,51.7
2022-12-14T07:41:38.144Z,51.9
2022-12-14T07:42:40.004Z,51.6
2022-12-14T07:43:41.980Z,51.4
2022-12-14T07:44:44.323Z,51.3
2022-12-14T07:45:46.523Z,50.8
2022-12-14T07:46:48.242Z,50.6
2022-12-14T07:47:49.909Z,50.4
2022-12-14T07:48:51.078Z,50.5
2022-12-14T07:49:53.123Z,50.9
2022-12-14T07:50:55.102Z,50.9
2022-12-14T07:51:56.891Z,50.8
2022-12-14T07:52:57.925Z,50.3
2022-12-14T07:54:00.068Z,50.2
2022-12-14T07:55:02.003Z,50.4
2022-12-14T07:56:04.123Z,50.5
2022-12-14T07:57:06.065Z,50.5
2022-12-14T07:58:08.102Z,50.8
2022-12-14T07:59:09.962Z,50.9
2022-12-14T08:00:12.264Z,50.9
2022-12-14T08:01:14.194Z,50.7
2022-12-14T08:02:16.515Z,50.7
2022-12-14T08:03:17.928Z,50.6
2022-12-14T08:04:18.987Z,50.7
2022-12-14T08:05:20.938Z,50.6
2022-12-14T08:06:23.023Z,50.6
2022-12-14T08:07:25.111Z,50.3
2022-12-14T08:08:26.932Z,50.3
2022-12-14T08:09:28.922Z,50.4
2022-12-14T08:10:34.412Z,49.8
2022-12-14T08:11:33.843Z,50
2022-12-14T08:12:34.873Z,50.4
2022-12-14T08:13:37.023Z,50.4
2022-12-14T08:14:39.022Z,50.1
2022-12-14T08:15:41.097Z,50.2
2022-12-14T08:16:43.150Z,50.3
2022-12-14T08:17:46.910Z,50.2
2022-12-14T08:18:49.048Z,50.3
2022-12-14T08:19:51.048Z,50.8
2022-12-14T08:20:53.536Z,51.2
2022-12-14T08:21:55.023Z,51.6
2022-12-14T08:22:58.016Z,51.9
2022-12-14T08:23:59.924Z,52
2022-12-14T08:25:02.131Z,52.1
2022-12-14T08:26:04.085Z,52
2022-12-14T08:27:05.946Z,52.1
2022-12-14T08:28:07.896Z,52.1
2022-12-14T08:29:10.034Z,52.1
2022-12-14T08:30:12.040Z,51.9
2022-12-14T08:31:14.024Z,51.9
2022-12-14T08:32:15.882Z,51.7
2022-12-14T08:33:16.885Z,51.4
2022-12-14T08:34:18.060Z,51.3
2022-12-14T08:35:20.002Z,51.2
2022-12-14T08:36:22.046Z,51.1
2022-12-14T08:37:24.378Z,50.8
2022-12-14T08:38:26.029Z,50.6
2022-12-14T08:39:27.922Z,50.5
2022-12-14T08:40:30.777Z,50.3
2022-12-14T08:41:31.930Z,50.1
2022-12-14T08:42:33.978Z,49.6
2022-12-14T08:43:36.008Z,49.3
2022-12-14T08:44:38.112Z,49.1
2022-12-14T08:45:39.984Z,49
2022-12-14T08:46:41.948Z,48.8
2022-12-14T08:47:43.964Z,48.7
2022-12-14T08:48:45.914Z,48.5
2022-12-14T08:49:46.952Z,48.4
2022-12-14T08:50:49.753Z,48
2022-12-14T08:51:50.898Z,48.1
2022-12-14T08:52:51.917Z,48
2022-12-14T08:53:54.023Z,48.2
2022-12-14T08:54:56.077Z,48.3
2022-12-14T08:55:58.071Z,47.8
2022-12-14T08:57:00.307Z,47.8
2022-12-14T08:58:02.277Z,47.8
2022-12-14T08:59:03.982Z,47.7
2022-12-14T09:00:06.200Z,47.6
2022-12-14T09:01:08.381Z,47.4
2022-12-14T09:02:10.158Z,46.9
2022-12-14T09:03:12.251Z,46.2
2022-12-14T09:04:13.920Z,46
2022-12-14T09:05:15.944Z,45.9
2022-12-14T09:06:17.948Z,45.4
2022-12-14T09:07:20.433Z,45.2
2022-12-14T09:08:21.942Z,45.2
2022-12-14T09:09:25.073Z,45.4
2022-12-14T09:10:27.083Z,45.4
2022-12-14T09:11:28.849Z,45.5
2022-12-14T09:12:29.863Z,45.9
2022-12-14T09:13:31.486Z,46.1
2022-12-14T09:14:32.964Z,46
2022-12-14T09:15:34.883Z,45.6
2022-12-14T09:16:36.111Z,45.7
2022-12-14T09:17:37.942Z,45.2
2022-12-14T09:18:40.003Z,44.9
2022-12-14T09:19:41.981Z,45.1
2022-12-14T09:20:44.083Z,44.6
2022-12-14T09:21:46.376Z,44.6
2022-12-14T09:22:48.003Z,44.8
2022-12-14T09:23:54.159Z,44.8
2022-12-14T09:24:52.020Z,45
2022-12-14T09:25:54.164Z,45.5
2022-12-14T09:26:56.223Z,45.9
2022-12-14T09:27:58.065Z,45.6
2022-12-14T09:29:00.125Z,45.4
2022-12-14T09:30:02.237Z,44.8
2022-12-14T09:31:04.062Z,44.4
2022-12-14T09:32:06.236Z,44.5
2022-12-14T09:33:08.132Z,44.6
2022-12-14T09:34:10.043Z,44.4
2022-12-14T09:35:12.200Z,44.7
2022-12-14T09:36:13.970Z,44.7
2022-12-14T09:37:15.923Z,44
2022-12-14T09:38:16.852Z,43.5
2022-12-14T09:39:17.954Z,43.1
2022-12-14T09:40:20.131Z,42.7
2022-12-14T09:41:21.964Z,42.6
2022-12-14T09:42:24.163Z,42.2
2022-12-14T09:43:26.320Z,42.1
2022-12-14T09:44:28.084Z,42.1
2022-12-14T09:45:30.194Z,42.3
2022-12-14T09:46:32.021Z,42.3
2022-12-14T09:47:34.736Z,42.2
2022-12-14T09:48:36.104Z,42
2022-12-14T09:49:38.065Z,41.6
2022-12-14T09:50:40.070Z,41.9
2022-12-14T09:51:42.083Z,42.1
2022-12-14T09:52:44.023Z,42.1
2022-12-14T09:53:46.024Z,42.2
2022-12-14T09:54:49.906Z,42.3
2022-12-14T09:55:50.104Z,42.8
2022-12-14T09:56:51.963Z,43.7
2022-12-14T09:57:53.907Z,43.8
2022-12-14T09:58:55.084Z,43.7
2022-12-14T09:59:57.081Z,43.4
2022-12-14T10:00:59.248Z,43.6
2022-12-14T10:03:09.141Z,44.1
2022-12-14T10:04:11.356Z,44.1
2022-12-14T10:05:13.163Z,43.9
2022-12-14T10:06:14.985Z,43.3
2022-12-14T10:07:16.946Z,43.5
2022-12-14T10:08:17.976Z,43.2
2022-12-14T10:09:20.045Z,42.6
2022-12-14T10:10:22.363Z,42.5
2022-12-14T10:11:24.298Z,42.3
2022-12-14T10:12:29.760Z,41.6
2022-12-14T10:13:28.552Z,40.8
2022-12-14T10:14:31.062Z,39.9
2022-12-14T10:15:33.483Z,39.5
2022-12-14T10:16:35.357Z,39.4
2022-12-14T10:17:37.523Z,39.9
2022-12-14T10:18:58.679Z,39.5
2022-12-14T10:19:41.224Z,40
2022-12-14T10:20:43.223Z,39.8
2022-12-14T10:21:45.042Z,40
2022-12-14T10:22:47.423Z,40.2
2022-12-14T10:23:49.584Z,40
2022-12-14T10:24:51.383Z,39.8
2022-12-14T10:25:53.404Z,40.2
2022-12-14T10:26:55.607Z,39.6
2022-12-14T10:28:12.872Z,39.1
2022-12-14T10:29:01.369Z,38.9
2022-12-14T10:30:01.351Z,39
2022-12-14T10:31:03.159Z,39.4
2022-12-14T10:32:05.345Z,39.7
2022-12-14T10:33:07.074Z,39.8
2022-12-14T10:34:12.274Z,40.1
2022-12-14T10:35:12.465Z,40.6
2022-12-14T10:36:14.330Z,41.3
2022-12-14T10:37:16.299Z,41.8
2022-12-14T10:38:18.582Z,42.3
2022-12-14T10:39:20.144Z,42.1
2022-12-14T10:40:32.866Z,41.7
2022-12-14T10:41:26.905Z,41
2022-12-14T10:42:28.404Z,40.2
2022-12-14T10:43:30.057Z,39.6
2022-12-14T10:44:32.703Z,38.4
2022-12-14T10:45:42.033Z,38
2022-12-14T10:46:36.201Z,38.3
2022-12-14T10:47:38.381Z,39.2
2022-12-14T10:48:40.102Z,40
2022-12-14T10:49:42.007Z,40.5
2022-12-14T10:50:44.504Z,40.4
2022-12-14T10:51:49.307Z,40.6
2022-12-14T10:52:51.318Z,40.6
2022-12-14T10:53:53.153Z,40.3
2022-12-14T10:54:56.032Z,40
2022-12-14T10:55:58.362Z,39.8
2022-12-14T10:57:00.701Z,39.8
2022-12-14T10:58:02.134Z,40
2022-12-14T10:59:04.307Z,40.1
2022-12-14T11:00:09.308Z,39.9
2022-12-14T11:01:08.275Z,39.7
2022-12-14T11:02:10.378Z,39.1
2022-12-14T11:03:12.228Z,38.5
2022-12-14T11:04:14.863Z,38.1
2022-12-14T11:05:16.404Z,37.4
2022-12-14T11:06:18.064Z,37.4
2022-12-14T11:07:20.086Z,37.8
2022-12-14T11:08:22.864Z,37.9
2022-12-14T11:09:24.404Z,37.3
2022-12-14T11:10:26.404Z,37.2
2022-12-14T11:11:28.196Z,37.4
2022-12-14T11:12:30.006Z,36.3
2022-12-14T11:13:32.054Z,36.2
2022-12-14T11:14:35.092Z,36.9
2022-12-14T11:15:37.990Z,37.3
2022-12-14T11:16:39.290Z,37.9
2022-12-14T11:17:41.319Z,38.2
2022-12-14T11:18:43.347Z,38.2
2022-12-14T11:19:45.041Z,38.2
2022-12-14T11:20:46.967Z,37.8
2022-12-14T11:21:49.810Z,37.2
2022-12-14T11:22:49.924Z,37.3
2022-12-14T11:23:50.934Z,37.5
2022-12-14T11:24:51.903Z,37.3
2022-12-14T11:25:53.125Z,37.2
2022-12-14T11:26:55.023Z,37.6
2022-12-14T11:27:57.557Z,38.1
2022-12-14T11:28:58.945Z,38
2022-12-14T11:30:01.004Z,38.1
2022-12-14T11:31:03.304Z,38.2
2022-12-14T11:32:05.224Z,38.8
2022-12-14T11:33:07.203Z,39.6
2022-12-14T11:34:09.248Z,39.8
2022-12-14T11:35:11.148Z,40.1
2022-12-14T11:36:13.365Z,39.8
2022-12-14T11:37:15.166Z,40
2022-12-14T11:38:17.263Z,40.1
2022-12-14T11:39:19.624Z,41.2
2022-12-14T11:40:21.637Z,41.5
2022-12-14T11:41:23.364Z,41
2022-12-14T11:42:25.245Z,40.7
2022-12-14T11:43:27.204Z,40.6
2022-12-14T11:44:29.251Z,40.3
2022-12-14T11:45:31.077Z,39.6
2022-12-14T11:46:33.614Z,39.3
2022-12-14T11:47:35.180Z,38.9
2022-12-14T11:48:37.924Z,39.2
2022-12-14T11:49:39.227Z,39.1
2022-12-14T11:50:41.103Z,38.7
2022-12-14T11:51:43.142Z,38.5
2022-12-14T11:52:45.249Z,38.4
2022-12-14T11:54:02.583Z,38.7
2022-12-14T11:55:04.166Z,39.6
2022-12-14T11:56:06.246Z,39.4
2022-12-14T11:57:07.984Z,38.9
2022-12-14T11:58:09.005Z,39.1
2022-12-14T11:59:11.078Z,39.2
2022-12-14T12:00:13.283Z,39.3
2022-12-14T12:01:15.356Z,39.5
2022-12-14T12:02:17.290Z,39.3
2022-12-14T12:03:19.752Z,39
2022-12-14T12:04:23.009Z,38.9
2022-12-14T12:05:25.204Z,39.5
2022-12-14T12:06:26.985Z,39.5
2022-12-14T12:07:27.947Z,39.5
2022-12-14T12:08:29.738Z,39.8
2022-12-14T12:09:31.624Z,40.3
2022-12-14T12:10:33.107Z,40.2
2022-12-14T12:11:35.093Z,40.2
2022-12-14T12:12:37.381Z,39.7
2022-12-14T12:13:39.528Z,39.7
2022-12-14T12:14:41.063Z,40.2
2022-12-14T12:15:43.255Z,40.5
2022-12-14T12:16:45.144Z,40.5
2022-12-14T12:17:47.745Z,40.5
2022-12-14T12:18:49.306Z,40.4
2022-12-14T12:19:52.448Z,40.3
2022-12-14T12:20:54.187Z,40.9
2022-12-14T12:21:56.304Z,40.4
2022-12-14T12:22:58.125Z,39.7
2022-12-14T12:24:00.164Z,39.3
2022-12-14T12:25:25.305Z,39.4
2022-12-14T12:26:04.264Z,39.5
2022-12-14T12:27:06.186Z,39.7
2022-12-14T12:28:08.184Z,39.9
2022-12-14T12:29:10.158Z,39.6
2022-12-14T12:30:12.405Z,39.8
2022-12-14T12:31:14.671Z,39.7
2022-12-14T12:32:16.245Z,39.7
2022-12-14T12:33:18.007Z,39.7
2022-12-14T12:34:20.145Z,39.9
2022-12-14T12:35:22.266Z,39.6
2022-12-14T12:36:24.543Z,39.1
2022-12-14T12:37:27.515Z,38.8
2022-12-14T12:38:28.883Z,39.2
2022-12-14T12:39:30.333Z,39.7
2022-12-14T12:40:32.525Z,39.9
2022-12-14T12:41:34.112Z,40.1
2022-12-14T12:42:36.265Z,40.3
2022-12-14T12:43:38.204Z,40
2022-12-14T12:44:40.088Z,39.8
2022-12-14T12:45:42.208Z,40.3
2022-12-14T12:47:07.053Z,40.6
2022-12-14T12:47:48.199Z,40.6
2022-12-14T12:48:49.204Z,40.2
2022-12-14T12:49:51.164Z,40
2022-12-14T12:50:53.016Z,39.9
2022-12-14T12:51:55.094Z,39.7
2022-12-14T12:53:02.604Z,39.8
2022-12-14T12:53:59.267Z,39.6
2022-12-14T12:55:01.125Z,39.3
2022-12-14T12:56:03.932Z,39
2022-12-14T12:57:05.284Z,39.6
2022-12-14T12:58:07.304Z,39.5
2022-12-14T12:59:09.164Z,39.2
2022-12-14T13:00:11.285Z,39.3
2022-12-14T13:01:13.896Z,39.2
2022-12-14T13:02:15.347Z,39.1
2022-12-14T13:03:17.350Z,39.4
2022-12-14T13:04:19.276Z,39.4
2022-12-14T13:05:45.528Z,39
2022-12-14T13:06:23.155Z,38.7
2022-12-14T13:07:25.185Z,38.8
2022-12-14T13:08:27.699Z,39.1
2022-12-14T13:09:29.165Z,38.5
2022-12-14T13:10:31.200Z,38.8
2022-12-14T13:11:33.312Z,38.8
2022-12-14T13:12:35.224Z,39
2022-12-14T13:13:37.064Z,38.8
2022-12-14T13:14:39.254Z,38.7
2022-12-14T13:15:41.221Z,38.7
2022-12-14T13:16:43.114Z,38.9
2022-12-14T13:17:44.449Z,39.3
2022-12-14T13:19:50.895Z,40.2
2022-12-14T13:20:51.106Z,39.8
2022-12-14T13:21:54.270Z,39.7
2022-12-14T13:22:55.190Z,39.7
2022-12-14T13:23:57.078Z,38.9
2022-12-14T13:25:00.105Z,38.8
2022-12-14T13:26:01.680Z,38.4
2022-12-14T13:27:03.664Z,38.6
2022-12-14T13:28:05.145Z,38.6
2022-12-14T13:29:07.184Z,38.9
2022-12-14T13:30:09.524Z,39
2022-12-14T13:31:12.016Z,38.9
2022-12-14T13:32:13.226Z,38.9
2022-12-14T13:33:15.144Z,38.8
2022-12-14T13:34:17.365Z,39
2022-12-14T13:35:19.151Z,39.2
2022-12-14T13:36:21.205Z,39.5
2022-12-14T13:37:23.228Z,39.7
2022-12-14T13:38:29.222Z,40
2022-12-14T13:39:27.186Z,39.8
2022-12-14T13:40:29.192Z,39.4
2022-12-14T13:41:31.085Z,39.5
2022-12-14T13:42:33.125Z,40
2022-12-14T13:43:35.344Z,40.5
2022-12-14T13:44:43.440Z,40.3
2022-12-14T13:45:39.203Z,39.8
2022-12-14T13:46:41.319Z,39.2
2022-12-14T13:47:43.188Z,39
2022-12-14T13:48:45.957Z,38.9
2022-12-14T13:49:59.488Z,38.9
2022-12-14T13:50:54.431Z,39.3
2022-12-14T13:51:51.205Z,39.7
2022-12-14T13:52:53.303Z,39.4
2022-12-14T13:53:55.185Z,40.4
2022-12-14T13:54:57.354Z,40.6
2022-12-14T13:55:59.286Z,40.4
2022-12-14T13:57:01.188Z,39.7